createdAt,value
2018-03-24T00:00:03.139Z,0.81
2018-03-24T00:02:30.708Z,0.83
2018-03-24T00:04:58.345Z,0.85
2018-03-24T00:07:25.971Z,0.89
2018-03-24T00:09:53.534Z,0.89
2018-03-24T00:12:21.097Z,0.87
2018-03-24T00:14:48.691Z,0.85
2018-03-24T00:17:16.290Z,0.86
2018-03-24T00:19:43.870Z,0.82
2018-03-24T00:22:11.511Z,0.80
2018-03-24T00:24:39.135Z,0.75
2018-03-24T00:27:06.721Z,0.66
2018-03-24T00:29:34.293Z,0.70
2018-03-24T00:32:01.878Z,0.70
2018-03-24T00:34:29.451Z,0.72
2018-03-24T00:36:57.050Z,0.75
2018-03-24T00:39:24.613Z,0.63
2018-03-24T00:41:52.230Z,0.64
2018-03-24T00:44:19.790Z,0.65
2018-03-24T00:46:47.355Z,0.64
2018-03-24T00:49:14.991Z,0.63
2018-03-24T00:51:42.563Z,0.66
2018-03-24T00:54:10.195Z,0.60
2018-03-24T00:56:37.812Z,0.59
2018-03-24T00:59:05.437Z,0.58
2018-03-24T01:01:33.002Z,0.59
2018-03-24T01:04:00.563Z,0.61
2018-03-24T01:06:28.133Z,0.62
2018-03-24T01:08:56.695Z,0.66
2018-03-24T01:11:24.274Z,0.72
2018-03-24T01:13:51.839Z,0.74
2018-03-24T01:16:19.450Z,0.77
2018-03-24T01:18:47.009Z,0.81
2018-03-24T01:21:14.578Z,0.75
2018-03-24T01:23:42.154Z,0.79
2018-03-24T01:26:09.721Z,0.73
2018-03-24T01:28:37.305Z,0.79
2018-03-24T01:31:04.872Z,0.80
2018-03-24T01:33:32.480Z,0.80
2018-03-24T01:36:00.046Z,0.79
2018-03-24T01:38:27.615Z,0.79
2018-03-24T01:40:55.204Z,0.81
2018-03-24T01:43:22.769Z,0.79
2018-03-24T01:45:50.341Z,0.77
2018-03-24T01:48:17.894Z,0.81
2018-03-24T01:50:45.502Z,0.84
2018-03-24T01:53:13.112Z,0.85
2018-03-24T01:55:40.674Z,0.82
2018-03-24T01:58:08.263Z,0.78
2018-03-24T02:00:35.841Z,0.79
2018-03-24T02:03:03.428Z,0.66
2018-03-24T02:05:30.998Z,0.72
2018-03-24T02:07:58.598Z,0.69
2018-03-24T02:10:26.159Z,0.65
2018-03-24T02:12:53.733Z,0.59
2018-03-24T02:15:21.321Z,0.61
2018-03-24T02:17:48.895Z,0.56
2018-03-24T02:20:18.903Z,0.57
2018-03-24T02:22:46.462Z,0.55
2018-03-24T02:25:24.029Z,0.58
2018-03-24T02:27:51.594Z,0.55
2018-03-24T02:30:19.203Z,0.60
2018-03-24T02:32:46.798Z,0.57
2018-03-24T02:35:14.363Z,0.58
2018-03-24T02:37:41.939Z,0.59
2018-03-24T02:40:09.512Z,0.65
2018-03-24T02:42:37.145Z,0.68
2018-03-24T02:45:04.716Z,0.68
2018-03-24T02:47:32.351Z,0.70
2018-03-24T02:49:59.922Z,0.65
2018-03-24T02:52:27.486Z,0.68
2018-03-24T02:54:55.064Z,0.65
2018-03-24T02:57:22.704Z,0.59
2018-03-24T02:59:50.271Z,0.57
2018-03-24T03:02:17.847Z,0.58
2018-03-24T03:04:45.499Z,0.62
2018-03-24T03:07:13.065Z,0.60
2018-03-24T03:09:40.637Z,0.57
2018-03-24T03:12:08.206Z,0.59
2018-03-24T03:14:35.849Z,0.65
2018-03-24T03:17:03.480Z,0.71
2018-03-24T03:19:31.123Z,0.71
2018-03-24T03:21:58.805Z,0.67
2018-03-24T03:24:26.395Z,0.63
2018-03-24T03:26:54.036Z,0.68
2018-03-24T03:29:21.614Z,0.62
2018-03-24T03:31:49.210Z,0.60
2018-03-24T03:34:16.896Z,0.58
2018-03-24T03:36:44.495Z,0.57
2018-03-24T03:39:12.123Z,0.50
2018-03-24T03:41:39.804Z,0.52
2018-03-24T03:44:07.432Z,0.52
2018-03-24T03:46:35.051Z,0.48
2018-03-24T03:49:02.636Z,0.43
2018-03-24T03:51:30.199Z,0.47
2018-03-24T03:53:57.759Z,0.47
2018-03-24T03:56:25.346Z,0.39
2018-03-24T03:58:52.970Z,0.42
2018-03-24T04:01:20.543Z,0.45
2018-03-24T04:03:48.112Z,0.38
2018-03-24T04:06:15.673Z,0.35
2018-03-24T04:08:43.248Z,0.35
2018-03-24T04:11:10.829Z,0.29
2018-03-24T04:13:38.456Z,0.34
2018-03-24T04:16:06.074Z,0.34
2018-03-24T04:18:33.641Z,0.24
2018-03-24T04:21:01.240Z,0.25
2018-03-24T04:23:28.807Z,0.26
2018-03-24T04:25:56.507Z,0.21
2018-03-24T04:28:24.066Z,0.23
2018-03-24T04:30:51.625Z,0.27
2018-03-24T04:33:19.204Z,0.28
2018-03-24T04:35:46.805Z,0.34
2018-03-24T04:38:14.430Z,0.36
2018-03-24T04:40:42.055Z,0.30
2018-03-24T04:43:09.625Z,0.35
2018-03-24T04:45:37.262Z,0.40
2018-03-24T04:48:04.832Z,0.42
2018-03-24T04:50:32.640Z,0.38
2018-03-24T04:53:00.271Z,0.43
2018-03-24T04:55:27.844Z,0.53
2018-03-24T04:57:55.417Z,0.51
2018-03-24T05:00:23.039Z,0.39
2018-03-24T05:02:50.728Z,0.48
2018-03-24T05:05:18.348Z,0.48
2018-03-24T05:07:45.974Z,0.52
2018-03-24T05:10:13.553Z,0.52
2018-03-24T05:12:41.119Z,0.59
2018-03-24T05:15:08.753Z,0.58
2018-03-24T05:17:36.315Z,0.64
2018-03-24T05:20:03.930Z,0.76
2018-03-24T05:22:31.567Z,0.86
2018-03-24T05:24:59.210Z,1.02
2018-03-24T05:27:26.909Z,1.21
2018-03-24T05:29:54.478Z,1.45
2018-03-24T05:32:22.047Z,1.48
2018-03-24T05:34:49.628Z,1.64
2018-03-24T05:37:17.255Z,1.68
2018-03-24T05:39:44.948Z,1.71
2018-03-24T05:42:12.524Z,1.87
2018-03-24T05:44:40.148Z,1.95
2018-03-24T05:47:07.732Z,2.17
2018-03-24T05:49:35.296Z,2.19
2018-03-24T05:52:02.974Z,2.33
2018-03-24T05:54:30.620Z,2.29
2018-03-24T05:56:58.189Z,1.91
2018-03-24T05:59:25.819Z,1.94
2018-03-24T06:01:53.383Z,2.09
2018-03-24T06:04:21.019Z,2.08
2018-03-24T06:06:48.639Z,2.15
2018-03-24T06:09:16.207Z,2.13
2018-03-24T06:11:43.778Z,2.06
2018-03-24T06:14:11.469Z,2.15
2018-03-24T06:16:39.120Z,2.31
2018-03-24T06:19:06.754Z,2.51
2018-03-24T06:21:34.324Z,2.29
2018-03-24T06:24:01.960Z,2.38
2018-03-24T06:26:29.591Z,2.61
2018-03-24T06:28:57.254Z,2.82
2018-03-24T06:31:27.261Z,2.94
2018-03-24T06:33:54.883Z,3.02
2018-03-24T06:36:22.518Z,3.10
2018-03-24T06:38:50.147Z,3.09
2018-03-24T06:41:17.727Z,3.13
2018-03-24T06:43:45.351Z,3.36
2018-03-24T06:46:13.031Z,3.46
2018-03-24T06:48:40.662Z,3.53
2018-03-24T06:51:08.234Z,3.52
2018-03-24T06:53:35.820Z,3.61
2018-03-24T06:56:03.391Z,3.81
2018-03-24T06:58:31.076Z,3.84
2018-03-24T07:00:58.670Z,3.84
2018-03-24T07:03:26.246Z,4.03
2018-03-24T07:05:53.899Z,4.25
2018-03-24T07:08:21.462Z,4.09
2018-03-24T07:10:49.074Z,4.41
2018-03-24T07:13:16.634Z,4.76
2018-03-24T07:15:44.303Z,5.13
2018-03-24T07:18:11.951Z,5.30
2018-03-24T07:20:39.515Z,5.36
2018-03-24T07:23:07.083Z,5.53
2018-03-24T07:25:34.714Z,5.67
2018-03-24T07:28:02.388Z,5.84
2018-03-24T07:30:30.011Z,6.11
2018-03-24T07:32:57.591Z,5.85
2018-03-24T07:35:25.186Z,5.82
2018-03-24T07:37:52.818Z,5.85
2018-03-24T07:40:20.458Z,6.06
2018-03-24T07:42:48.029Z,6.40
2018-03-24T07:45:15.660Z,6.43
2018-03-24T07:47:43.258Z,6.40
2018-03-24T07:50:10.829Z,6.20
2018-03-24T07:52:38.421Z,5.94
2018-03-24T07:55:05.985Z,6.27
2018-03-24T07:57:33.570Z,6.58
2018-03-24T08:00:01.151Z,6.72
2018-03-24T08:02:28.786Z,6.69
2018-03-24T08:04:56.355Z,6.70
2018-03-24T08:07:23.993Z,7.06
2018-03-24T08:09:51.567Z,6.67
2018-03-24T08:12:19.136Z,6.58
2018-03-24T08:14:46.707Z,6.60
2018-03-24T08:17:14.274Z,6.89
2018-03-24T08:19:41.907Z,7.02
2018-03-24T08:22:09.471Z,7.33
2018-03-24T08:24:37.030Z,7.18
2018-03-24T08:27:04.665Z,7.14
2018-03-24T08:29:32.296Z,6.93
2018-03-24T08:31:59.894Z,6.77
2018-03-24T08:34:27.458Z,6.97
2018-03-24T08:36:55.090Z,6.86
2018-03-24T08:39:22.654Z,7.09
2018-03-24T08:41:50.263Z,7.06
2018-03-24T08:44:17.839Z,6.75
2018-03-24T08:46:45.411Z,7.29
2018-03-24T08:49:12.980Z,7.64
2018-03-24T08:51:40.551Z,7.91
2018-03-24T08:54:08.166Z,8.00
2018-03-24T08:56:35.733Z,8.53
2018-03-24T08:59:03.369Z,8.10
2018-03-24T09:01:31.007Z,8.26
2018-03-24T09:03:58.585Z,8.63
2018-03-24T09:06:26.161Z,8.85
2018-03-24T09:08:53.786Z,9.25
2018-03-24T09:11:21.403Z,9.10
2018-03-24T09:13:48.965Z,9.01
2018-03-24T09:16:16.603Z,8.74
2018-03-24T09:18:44.180Z,8.70
2018-03-24T09:21:11.831Z,8.63
2018-03-24T09:23:39.451Z,8.96
2018-03-24T09:26:07.138Z,9.15
2018-03-24T09:28:34.820Z,9.18
2018-03-24T09:31:02.448Z,9.21
2018-03-24T09:33:30.059Z,9.17
2018-03-24T09:35:57.636Z,9.01
2018-03-24T09:38:25.203Z,9.42
2018-03-24T09:40:52.769Z,9.51
2018-03-24T09:43:20.461Z,9.58
2018-03-24T09:45:48.703Z,9.52
2018-03-24T09:48:16.284Z,9.72
2018-03-24T09:50:43.903Z,9.91
2018-03-24T09:53:11.481Z,9.77
2018-03-24T09:55:39.113Z,10.10
2018-03-24T09:58:06.695Z,10.19
2018-03-24T10:00:34.395Z,10.38
2018-03-24T10:03:02.022Z,10.41
2018-03-24T10:05:29.634Z,10.50
2018-03-24T10:07:57.202Z,9.68
2018-03-24T10:10:24.779Z,10.04
2018-03-24T10:12:53.211Z,10.46
2018-03-24T10:15:20.785Z,10.45
2018-03-24T10:17:48.350Z,10.28
2018-03-24T10:20:15.922Z,10.62
2018-03-24T10:23:00.901Z,10.88
2018-03-24T10:25:28.482Z,10.43
2018-03-24T10:27:56.050Z,10.37
2018-03-24T10:30:23.683Z,10.19
2018-03-24T10:32:51.255Z,10.29
2018-03-24T10:35:18.940Z,9.84
2018-03-24T10:38:00.990Z,10.15
2018-03-24T10:40:28.571Z,9.69
2018-03-24T10:43:01.747Z,9.62
2018-03-24T10:45:29.377Z,9.18
2018-03-24T10:47:56.998Z,9.15
2018-03-24T10:50:24.567Z,9.08
2018-03-24T10:52:52.205Z,9.00
2018-03-24T10:55:19.781Z,9.16
2018-03-24T10:57:47.350Z,9.40
2018-03-24T11:00:15.016Z,8.90
2018-03-24T11:02:42.591Z,8.88
2018-03-24T11:05:10.275Z,8.82
2018-03-24T11:07:37.959Z,8.91
2018-03-24T11:10:05.531Z,9.03
2018-03-24T11:12:33.103Z,8.69
2018-03-24T11:15:00.671Z,8.50
2018-03-24T11:17:28.234Z,8.74
2018-03-24T11:19:55.869Z,8.21
2018-03-24T11:22:23.420Z,8.46
2018-03-24T11:24:51.108Z,8.27
2018-03-24T11:27:18.746Z,7.66
2018-03-24T11:29:46.392Z,7.99
2018-03-24T11:32:14.007Z,7.91
2018-03-24T11:34:41.597Z,7.48
2018-03-24T11:37:09.174Z,7.53
2018-03-24T11:39:36.734Z,7.60
2018-03-24T11:42:04.371Z,7.78
2018-03-24T11:44:31.942Z,7.78
2018-03-24T11:46:59.568Z,7.66
2018-03-24T11:49:27.134Z,7.09
2018-03-24T11:51:54.781Z,7.10
2018-03-24T11:57:23.185Z,7.12
2018-03-24T11:59:50.815Z,7.27
2018-03-24T12:02:18.478Z,7.51
2018-03-24T12:04:46.095Z,7.31
2018-03-24T12:07:13.655Z,7.24
2018-03-24T12:09:41.263Z,7.24
2018-03-24T12:12:08.838Z,7.19
2018-03-24T12:14:36.458Z,7.49
2018-03-24T12:17:04.143Z,7.38
2018-03-24T12:19:31.788Z,7.19
2018-03-24T12:21:59.381Z,7.19
2018-03-24T12:24:27.021Z,7.41
2018-03-24T12:26:54.586Z,7.71
2018-03-24T12:29:22.268Z,7.49
2018-03-24T12:31:49.883Z,7.31
2018-03-24T12:34:17.451Z,7.41
2018-03-24T12:36:45.083Z,6.97
2018-03-24T12:39:12.645Z,6.87
2018-03-24T12:41:40.280Z,7.36
2018-03-24T12:44:07.846Z,7.68
2018-03-24T12:46:35.402Z,7.90
2018-03-24T12:49:02.967Z,8.06
2018-03-24T12:51:30.582Z,8.20
2018-03-24T12:53:58.188Z,8.55
2018-03-24T12:56:25.775Z,8.45
2018-03-24T12:58:53.420Z,8.59
2018-03-24T13:01:21.057Z,8.37
2018-03-24T13:03:48.635Z,8.13
2018-03-24T13:06:16.203Z,7.90
2018-03-24T13:08:43.822Z,8.13
2018-03-24T13:11:11.508Z,8.21
2018-03-24T13:13:39.072Z,8.17
2018-03-24T13:16:06.743Z,7.10
2018-03-24T13:18:34.371Z,7.05
2018-03-24T13:21:01.926Z,6.48
2018-03-24T13:23:29.555Z,6.47
2018-03-24T13:25:57.113Z,5.92
2018-03-24T13:28:24.670Z,5.78
2018-03-24T13:30:52.294Z,5.69
2018-03-24T13:33:19.918Z,5.46
2018-03-24T13:35:47.534Z,5.30
2018-03-24T13:38:15.082Z,5.10
2018-03-24T13:40:42.795Z,5.02
2018-03-24T13:43:10.420Z,5.08
2018-03-24T13:45:38.038Z,4.95
2018-03-24T13:48:05.620Z,4.77
2018-03-24T13:50:33.187Z,4.75
2018-03-24T13:53:00.757Z,4.70
2018-03-24T13:55:28.358Z,4.53
2018-03-24T13:57:55.985Z,4.53
2018-03-24T14:00:23.570Z,4.53
2018-03-24T14:02:51.150Z,4.43
2018-03-24T14:05:18.718Z,4.45
2018-03-24T14:07:46.348Z,4.24
2018-03-24T14:10:13.982Z,4.16
2018-03-24T14:12:41.598Z,4.04
2018-03-24T14:15:09.275Z,4.06
2018-03-24T14:17:36.838Z,3.95
2018-03-24T14:20:04.404Z,3.94
2018-03-24T14:22:32.022Z,3.85
2018-03-24T14:24:59.586Z,3.83
2018-03-24T14:27:27.161Z,3.80
2018-03-24T14:32:21.772Z,3.94
2018-03-24T14:34:49.382Z,3.97
2018-03-24T14:37:16.954Z,3.97
2018-03-24T14:39:44.526Z,3.97
2018-03-24T14:42:12.176Z,3.87
2018-03-24T14:44:39.746Z,3.76
2018-03-24T14:47:07.306Z,3.80
2018-03-24T14:49:34.922Z,3.78
2018-03-24T14:52:02.543Z,3.84
2018-03-24T14:54:30.171Z,3.83
2018-03-24T14:56:57.825Z,3.84
2018-03-24T14:59:25.444Z,3.75
2018-03-24T15:01:53.013Z,3.74
2018-03-24T15:04:20.635Z,3.69
2018-03-24T15:06:48.249Z,3.68
2018-03-24T15:09:15.806Z,3.54
2018-03-24T15:11:43.362Z,3.48
2018-03-24T15:14:10.926Z,3.55
2018-03-24T15:16:38.486Z,3.52
2018-03-24T15:19:06.047Z,3.50
2018-03-24T15:21:33.743Z,3.49
2018-03-24T15:24:01.386Z,3.50
2018-03-24T15:26:29.015Z,3.43
2018-03-24T15:32:07.146Z,3.41
2018-03-24T15:34:46.742Z,3.38
2018-03-24T15:37:14.389Z,3.35
2018-03-24T15:39:42.012Z,3.27
2018-03-24T15:42:09.662Z,3.27
2018-03-24T15:44:37.230Z,3.26
2018-03-24T15:47:04.806Z,3.14
2018-03-24T15:49:32.366Z,3.13
2018-03-24T15:51:59.982Z,3.12
2018-03-24T15:54:27.547Z,2.94
2018-03-24T15:56:55.125Z,2.91
2018-03-24T15:59:22.733Z,2.81
2018-03-24T16:01:50.398Z,2.67
2018-03-24T16:04:18.032Z,2.53
2018-03-24T16:06:45.656Z,2.45
2018-03-24T16:09:13.283Z,2.34
2018-03-24T16:11:40.848Z,2.22
2018-03-24T16:14:08.411Z,2.21
2018-03-24T16:16:35.987Z,2.19
2018-03-24T16:19:03.546Z,2.20
2018-03-24T16:21:31.257Z,2.20
2018-03-24T16:23:58.879Z,2.17
2018-03-24T16:26:26.513Z,2.15
2018-03-24T16:28:54.152Z,2.08
2018-03-24T16:31:21.714Z,2.07
2018-03-24T16:33:49.456Z,1.99
2018-03-24T16:36:17.108Z,2.00
2018-03-24T16:38:44.798Z,2.01
2018-03-24T16:41:12.504Z,1.87
2018-03-24T16:43:40.190Z,1.84
2018-03-24T16:46:08.083Z,1.72
2018-03-24T16:48:36.106Z,1.76
2018-03-24T16:51:03.788Z,1.74
2018-03-24T16:53:31.475Z,1.83
2018-03-24T16:55:59.097Z,1.79
2018-03-24T16:58:26.760Z,1.80
2018-03-24T17:00:54.359Z,1.76
2018-03-24T17:03:21.934Z,1.79
2018-03-24T17:05:49.559Z,1.82
2018-03-24T17:08:17.133Z,1.77
2018-03-24T17:10:44.768Z,1.80
2018-03-24T17:13:12.479Z,1.80
2018-03-24T17:15:40.068Z,1.73
2018-03-24T17:18:07.675Z,1.77
2018-03-24T17:20:35.272Z,1.78
2018-03-24T17:23:02.990Z,1.79
2018-03-24T17:25:30.612Z,1.76
2018-03-24T17:27:58.216Z,1.77
2018-03-24T17:30:25.863Z,1.72
2018-03-24T17:32:53.423Z,1.65
2018-03-24T17:35:21.053Z,1.64
2018-03-24T17:37:48.682Z,1.64
2018-03-24T17:40:16.315Z,1.67
2018-03-24T17:42:43.950Z,1.67
2018-03-24T17:45:11.582Z,1.72
2018-03-24T17:47:39.198Z,1.68
2018-03-24T17:50:06.820Z,1.63
2018-03-24T17:52:34.446Z,1.70
2018-03-24T17:55:02.018Z,1.74
2018-03-24T17:57:29.634Z,1.71
2018-03-24T17:59:57.210Z,1.66
2018-03-24T18:02:24.769Z,1.66
2018-03-24T18:04:52.391Z,1.70
2018-03-24T18:07:19.951Z,1.72
2018-03-24T18:09:47.579Z,1.67
2018-03-24T18:12:15.211Z,1.66
2018-03-24T18:14:42.831Z,1.64
2018-03-24T18:17:10.402Z,1.64
2018-03-24T18:19:38.014Z,1.68
2018-03-24T18:22:05.704Z,1.67
2018-03-24T18:24:33.289Z,1.66
2018-03-24T18:27:00.867Z,1.67
2018-03-24T18:29:28.444Z,1.63
2018-03-24T18:31:56.015Z,1.64
2018-03-24T18:34:23.596Z,1.61
2018-03-24T18:36:51.158Z,1.62
2018-03-24T18:39:18.726Z,1.61
2018-03-24T18:41:46.352Z,1.62
2018-03-24T18:44:14.046Z,1.60
2018-03-24T18:46:41.649Z,1.52
2018-03-24T18:49:09.316Z,1.56
2018-03-24T18:51:36.886Z,1.61
2018-03-24T18:54:04.454Z,1.59
2018-03-24T18:56:32.022Z,1.64
2018-03-24T18:58:59.608Z,1.65
2018-03-24T19:01:27.182Z,1.65
2018-03-24T19:03:54.743Z,1.66
2018-03-24T19:06:22.362Z,1.68
2018-03-24T19:08:49.926Z,1.66
2018-03-24T19:11:17.495Z,1.67
2018-03-24T19:13:45.070Z,1.59
2018-03-24T19:16:12.647Z,1.57
2018-03-24T19:18:40.222Z,1.59
2018-03-24T19:21:07.804Z,1.58
2018-03-24T19:23:35.379Z,1.60
2018-03-24T19:26:02.958Z,1.53
2018-03-24T19:28:30.574Z,1.53
2018-03-24T19:30:58.133Z,1.54
2018-03-24T19:33:25.700Z,1.54
2018-03-24T19:35:53.271Z,1.54
2018-03-24T19:38:20.831Z,1.49
2018-03-24T19:40:48.398Z,1.51
2018-03-24T19:43:15.972Z,1.52
2018-03-24T19:45:43.587Z,1.46
2018-03-24T19:48:11.155Z,1.49
2018-03-24T19:50:38.728Z,1.52
2018-03-24T19:53:06.360Z,1.54
2018-03-24T19:55:33.923Z,1.56
2018-03-24T19:58:01.500Z,1.60
2018-03-24T20:00:29.062Z,1.60
2018-03-24T20:02:56.704Z,1.63
2018-03-24T20:05:24.266Z,1.64
2018-03-24T20:07:51.957Z,1.55
2018-03-24T20:10:19.530Z,1.55
2018-03-24T20:12:47.103Z,1.51
2018-03-24T20:15:14.750Z,1.52
2018-03-24T20:17:42.381Z,1.44
2018-03-24T20:20:10.022Z,1.38
2018-03-24T20:22:37.596Z,1.34
2018-03-24T20:25:05.211Z,1.38
2018-03-24T20:27:32.835Z,1.37
2018-03-24T20:30:00.469Z,1.31
2018-03-24T20:32:28.074Z,1.32
2018-03-24T20:34:55.634Z,1.32
2018-03-24T20:37:23.285Z,1.29
2018-03-24T20:39:50.864Z,1.30
2018-03-24T20:42:18.583Z,1.27
2018-03-24T20:44:46.087Z,1.33
2018-03-24T20:47:13.741Z,1.32
2018-03-24T20:49:41.371Z,1.36
2018-03-24T20:52:08.996Z,1.34
2018-03-24T20:54:36.655Z,1.37
2018-03-24T20:57:04.276Z,1.43
2018-03-24T20:59:31.856Z,1.47
2018-03-24T21:01:59.479Z,1.48
2018-03-24T21:04:27.050Z,1.52
2018-03-24T21:06:54.628Z,1.52
2018-03-24T21:09:22.320Z,1.54
2018-03-24T21:11:49.897Z,1.49
2018-03-24T21:14:17.518Z,1.48
2018-03-24T21:16:45.155Z,1.49
2018-03-24T21:19:12.714Z,1.47
2018-03-24T21:21:40.347Z,1.44
2018-03-24T21:24:07.978Z,1.41
2018-03-24T21:26:35.602Z,1.42
2018-03-24T21:29:03.173Z,1.42
2018-03-24T21:31:30.813Z,1.38
2018-03-24T21:33:58.408Z,1.34
2018-03-24T21:36:25.972Z,1.28
2018-03-24T21:38:53.607Z,1.23
2018-03-24T21:41:21.171Z,1.26
2018-03-24T21:43:48.811Z,1.27
2018-03-24T21:46:16.375Z,1.20
2018-03-24T21:48:44.043Z,1.24
2018-03-24T21:51:11.664Z,1.28
2018-03-24T21:53:39.327Z,1.30
2018-03-24T21:56:06.911Z,1.29
2018-03-24T21:58:34.574Z,1.27
2018-03-24T22:01:02.145Z,1.26
2018-03-24T22:03:29.738Z,1.18
2018-03-24T22:05:57.366Z,1.15
2018-03-24T22:08:24.926Z,1.11
2018-03-24T22:10:52.529Z,1.10
2018-03-24T22:13:20.094Z,1.09
2018-03-24T22:15:47.716Z,1.13
2018-03-24T22:18:15.287Z,1.16
2018-03-24T22:20:42.854Z,1.20
2018-03-24T22:23:10.573Z,1.23
2018-03-24T22:25:38.138Z,1.24
2018-03-24T22:28:05.767Z,1.22
2018-03-24T22:30:33.333Z,1.19
2018-03-24T22:33:00.885Z,1.21
2018-03-24T22:35:28.517Z,1.23
2018-03-24T22:37:56.128Z,1.22
2018-03-24T22:40:23.724Z,1.23
2018-03-24T22:42:51.359Z,1.21
2018-03-24T22:45:19.000Z,1.25
2018-03-24T22:47:46.729Z,1.28
2018-03-24T22:50:14.362Z,1.25
2018-03-24T22:52:41.924Z,1.29
2018-03-24T22:55:09.498Z,1.31
2018-03-24T22:57:37.190Z,1.36
2018-03-24T23:00:04.957Z,1.34
2018-03-24T23:02:32.574Z,1.35
2018-03-24T23:05:00.131Z,1.36
2018-03-24T23:07:27.698Z,1.36
2018-03-24T23:09:55.262Z,1.33
2018-03-24T23:12:22.903Z,1.35
2018-03-24T23:14:50.538Z,1.36
2018-03-24T23:17:18.146Z,1.35
2018-03-24T23:19:45.703Z,1.30
2018-03-24T23:22:13.265Z,1.26
2018-03-24T23:24:40.826Z,1.22
2018-03-24T23:27:08.389Z,1.17
2018-03-24T23:29:35.963Z,1.10
2018-03-24T23:32:03.586Z,1.03
2018-03-24T23:34:31.209Z,0.96
2018-03-24T23:36:58.827Z,0.83
2018-03-24T23:39:26.392Z,0.70
2018-03-24T23:41:54.022Z,0.59
2018-03-24T23:44:21.586Z,0.48
2018-03-24T23:46:49.218Z,0.39
2018-03-24T23:49:16.778Z,0.33
2018-03-24T23:51:44.374Z,0.25
2018-03-24T23:54:11.939Z,0.18
2018-03-24T23:56:39.512Z,0.09
2018-03-24T23:59:07.084Z,0.00
